SJX032 RCTP-KSEA
Flight info
| Callsign | SJX032 |
|---|---|
| Flight time | N/A |
| Altitude | 33000 |
| Route | ROBIN1A ROBIN R583 BORDO Z29 GAKIA Y293 YULIA Y57 POROT OTR11 AVBET/N0492F350 OTR11 LEPKI DCT 37N160E 37N165E 38N170E 41N180E/N0490F370 45N170W 47N160W 47N150W 47N140W/N0478F390 47N130W DCT WIDEN DCT LATAY HAWKZ8 |
| Aircraft | A359/H-SDE2E3GHIJ3J4J5LM1ORWXY/LB1D1 |
Departure
| Time | N/A |
|---|---|
| Airport | Taiwan Taoyuan International Airport (RCTP) |
Arrival
| Time | 2026-05-04 19:46 |
|---|---|
| Airport | Seattle–Tacoma International Airport (KSEA) |
| Time | Latitude | Longitude | Altitude | Speed | Heading |
|---|---|---|---|---|---|
| 2026-05-04 18:36 | 47.05855 | -131.59648 | 39005 ft | 466 kts | 91° |
| 2026-05-04 18:37 | 47.05570 | -131.50163 | 39004 ft | 466 kts | 91° |
| 2026-05-04 18:37 | 47.05275 | -131.40639 | 39001 ft | 467 kts | 91° |
| 2026-05-04 18:38 | 47.04974 | -131.31145 | 39001 ft | 467 kts | 91° |
| 2026-05-04 18:38 | 47.04664 | -131.21648 | 39007 ft | 466 kts | 91° |
| 2026-05-04 18:39 | 47.04347 | -131.12182 | 38991 ft | 465 kts | 91° |
| 2026-05-04 18:39 | 47.04024 | -131.02720 | 38993 ft | 464 kts | 91° |
| 2026-05-04 18:40 | 47.03693 | -130.93275 | 38993 ft | 464 kts | 91° |
| 2026-05-04 18:40 | 47.03354 | -130.83816 | 38984 ft | 464 kts | 91° |
| 2026-05-04 18:41 | 47.03008 | -130.74371 | 38979 ft | 464 kts | 91° |
| 2026-05-04 18:41 | 47.02655 | -130.64982 | 38991 ft | 464 kts | 91° |
| 2026-05-04 18:42 | 47.02292 | -130.55549 | 38980 ft | 464 kts | 91° |
| 2026-05-04 18:42 | 47.01923 | -130.46108 | 38979 ft | 464 kts | 91° |
| 2026-05-04 18:43 | 47.01546 | -130.36681 | 38979 ft | 464 kts | 91° |
| 2026-05-04 18:43 | 47.01161 | -130.27239 | 38978 ft | 464 kts | 91° |
| 2026-05-04 18:44 | 47.00768 | -130.17813 | 38979 ft | 464 kts | 91° |
| 2026-05-04 18:44 | 47.00368 | -130.08388 | 38990 ft | 464 kts | 91° |
| 2026-05-04 18:45 | 46.99959 | -129.98967 | 38971 ft | 463 kts | 91° |
| 2026-05-04 18:45 | 46.99486 | -129.89571 | 38972 ft | 463 kts | 91° |
| 2026-05-04 18:46 | 46.98958 | -129.80166 | 38973 ft | 463 kts | 92° |
| 2026-05-04 18:46 | 46.98430 | -129.70777 | 38970 ft | 463 kts | 91° |
| 2026-05-04 18:47 | 46.97904 | -129.61391 | 38971 ft | 463 kts | 91° |
| 2026-05-04 18:47 | 46.97374 | -129.51992 | 38974 ft | 463 kts | 92° |
| 2026-05-04 18:48 | 46.96837 | -129.42616 | 38967 ft | 462 kts | 91° |
| 2026-05-04 18:48 | 46.96292 | -129.33242 | 38965 ft | 462 kts | 91° |
| 2026-05-04 18:49 | 46.95744 | -129.23939 | 38967 ft | 462 kts | 91° |
| 2026-05-04 18:49 | 46.95185 | -129.14582 | 38965 ft | 462 kts | 92° |
| 2026-05-04 18:50 | 46.94613 | -129.05158 | 38955 ft | 462 kts | 92° |
| 2026-05-04 18:50 | 46.94042 | -128.95857 | 38964 ft | 462 kts | 92° |
| 2026-05-04 18:51 | 46.93459 | -128.86513 | 38965 ft | 461 kts | 91° |
| 2026-05-04 18:51 | 46.92871 | -128.77183 | 38963 ft | 461 kts | 91° |
| 2026-05-04 18:52 | 46.92274 | -128.67834 | 38965 ft | 461 kts | 91° |
| 2026-05-04 18:52 | 46.91669 | -128.58500 | 38965 ft | 461 kts | 91° |
| 2026-05-04 18:53 | 46.91056 | -128.49153 | 38968 ft | 461 kts | 92° |
| 2026-05-04 18:53 | 46.90437 | -128.39821 | 38963 ft | 461 kts | 92° |
| 2026-05-04 18:54 | 46.89809 | -128.30493 | 38965 ft | 461 kts | 92° |
| 2026-05-04 18:54 | 46.89174 | -128.21158 | 38962 ft | 462 kts | 91° |
| 2026-05-04 18:55 | 46.88531 | -128.11823 | 38964 ft | 462 kts | 92° |
| 2026-05-04 18:55 | 46.87551 | -127.97807 | 38965 ft | 462 kts | 92° |
| 2026-05-04 18:56 | 46.86889 | -127.88473 | 38963 ft | 462 kts | 92° |
| 2026-05-04 18:56 | 46.86218 | -127.79127 | 38962 ft | 462 kts | 92° |
| 2026-05-04 18:57 | 46.85540 | -127.69797 | 38970 ft | 462 kts | 92° |
| 2026-05-04 18:57 | 46.84853 | -127.60442 | 38964 ft | 463 kts | 92° |
| 2026-05-04 18:58 | 46.84159 | -127.51093 | 38969 ft | 463 kts | 92° |
| 2026-05-04 18:58 | 46.83455 | -127.41730 | 38961 ft | 463 kts | 92° |
| 2026-05-04 18:59 | 46.82734 | -127.32386 | 38962 ft | 464 kts | 93° |
| 2026-05-04 18:59 | 46.81336 | -127.23141 | 38964 ft | 467 kts | 99° |
| 2026-05-04 19:00 | 46.79719 | -127.13949 | 38967 ft | 467 kts | 100° |
| 2026-05-04 19:00 | 46.78087 | -127.04780 | 38974 ft | 468 kts | 99° |
| 2026-05-04 19:01 | 46.76719 | -126.97145 | 38972 ft | 469 kts | 100° |
| 2026-05-04 19:01 | 46.75062 | -126.87942 | 38971 ft | 469 kts | 100° |
| 2026-05-04 19:02 | 46.73395 | -126.78739 | 38976 ft | 469 kts | 100° |
| 2026-05-04 19:02 | 46.71727 | -126.69570 | 38974 ft | 468 kts | 100° |
| 2026-05-04 19:03 | 46.70052 | -126.60412 | 38974 ft | 468 kts | 100° |
| 2026-05-04 19:03 | 46.68370 | -126.51259 | 38977 ft | 468 kts | 100° |
| 2026-05-04 19:04 | 46.66681 | -126.42111 | 38977 ft | 468 kts | 100° |
| 2026-05-04 19:04 | 46.64983 | -126.32961 | 38980 ft | 468 kts | 100° |
| 2026-05-04 19:05 | 46.63278 | -126.23822 | 38977 ft | 468 kts | 100° |
| 2026-05-04 19:05 | 46.61567 | -126.14697 | 38979 ft | 467 kts | 100° |
| 2026-05-04 19:06 | 46.59861 | -126.05639 | 38977 ft | 468 kts | 100° |
| 2026-05-04 19:06 | 46.58137 | -125.96527 | 38979 ft | 468 kts | 100° |
| 2026-05-04 19:07 | 46.56405 | -125.87420 | 38988 ft | 467 kts | 100° |
| 2026-05-04 19:07 | 46.54671 | -125.78345 | 38979 ft | 466 kts | 100° |
| 2026-05-04 19:08 | 46.52930 | -125.69277 | 38983 ft | 466 kts | 100° |
| 2026-05-04 19:08 | 46.51179 | -125.60198 | 38980 ft | 468 kts | 100° |
| 2026-05-04 19:09 | 46.49418 | -125.51110 | 38979 ft | 468 kts | 100° |
| 2026-05-04 19:09 | 46.47648 | -125.42027 | 38982 ft | 467 kts | 100° |
| 2026-05-04 19:10 | 46.45875 | -125.32964 | 38979 ft | 467 kts | 100° |
| 2026-05-04 19:10 | 46.44095 | -125.23909 | 38988 ft | 467 kts | 100° |
| 2026-05-04 19:11 | 46.42314 | -125.14857 | 38984 ft | 466 kts | 99° |
| 2026-05-04 19:11 | 46.41527 | -125.05703 | 38988 ft | 453 kts | 82° |
| 2026-05-04 19:12 | 46.43451 | -124.92506 | 38988 ft | 446 kts | 71° |
| 2026-05-04 19:13 | 46.45052 | -124.83805 | 38994 ft | 446 kts | 71° |
| 2026-05-04 19:13 | 46.46630 | -124.75116 | 38981 ft | 445 kts | 71° |
| 2026-05-04 19:14 | 46.48188 | -124.66479 | 38994 ft | 445 kts | 71° |
| 2026-05-04 19:14 | 46.49750 | -124.57773 | 38994 ft | 447 kts | 71° |
| 2026-05-04 19:15 | 46.51309 | -124.49037 | 38999 ft | 447 kts | 71° |
| 2026-05-04 19:15 | 46.52861 | -124.40298 | 39004 ft | 447 kts | 71° |
| 2026-05-04 19:16 | 46.54407 | -124.31547 | 38994 ft | 447 kts | 71° |
| 2026-05-04 19:16 | 46.55945 | -124.22797 | 38982 ft | 445 kts | 71° |
| 2026-05-04 19:16 | 46.56692 | -124.18511 | 38385 ft | 433 kts | 71° |
| 2026-05-04 19:17 | 46.57433 | -124.14272 | 37029 ft | 434 kts | 71° |
| 2026-05-04 19:17 | 46.58184 | -124.09989 | 35564 ft | 440 kts | 71° |
| 2026-05-04 19:17 | 46.58942 | -124.05648 | 34158 ft | 446 kts | 72° |
| 2026-05-04 19:17 | 46.59705 | -124.01257 | 32730 ft | 449 kts | 72° |
| 2026-05-04 19:18 | 46.60465 | -123.96860 | 31906 ft | 447 kts | 72° |
| 2026-05-04 19:18 | 46.61214 | -123.92509 | 31481 ft | 441 kts | 72° |
| 2026-05-04 19:18 | 46.61952 | -123.88215 | 31033 ft | 436 kts | 72° |
| 2026-05-04 19:18 | 46.62685 | -123.83945 | 30573 ft | 432 kts | 73° |
| 2026-05-04 19:19 | 46.63405 | -123.79740 | 30120 ft | 428 kts | 73° |
| 2026-05-04 19:19 | 46.64120 | -123.75554 | 29604 ft | 424 kts | 73° |
| 2026-05-04 19:19 | 46.64818 | -123.71462 | 29157 ft | 420 kts | 73° |
| 2026-05-04 19:19 | 46.65457 | -123.67343 | 28712 ft | 416 kts | 75° |
| 2026-05-04 19:20 | 46.66029 | -123.63241 | 28240 ft | 412 kts | 75° |
| 2026-05-04 19:20 | 46.66595 | -123.59179 | 27769 ft | 408 kts | 75° |
| 2026-05-04 19:20 | 46.67160 | -123.55160 | 27316 ft | 404 kts | 75° |
| 2026-05-04 19:20 | 46.67726 | -123.51163 | 26866 ft | 400 kts | 75° |
| 2026-05-04 19:21 | 46.68287 | -123.47211 | 26395 ft | 397 kts | 75° |
| 2026-05-04 19:21 | 46.68843 | -123.43286 | 25941 ft | 395 kts | 75° |
| 2026-05-04 19:21 | 46.69396 | -123.39384 | 25481 ft | 393 kts | 75° |
| 2026-05-04 19:21 | 46.69944 | -123.35502 | 25007 ft | 391 kts | 75° |
| 2026-05-04 19:22 | 46.70491 | -123.31626 | 24549 ft | 389 kts | 75° |
| 2026-05-04 19:22 | 46.71033 | -123.27777 | 24092 ft | 388 kts | 75° |
| 2026-05-04 19:22 | 46.71573 | -123.23938 | 23630 ft | 386 kts | 75° |
| 2026-05-04 19:22 | 46.72109 | -123.20112 | 23118 ft | 385 kts | 75° |
| 2026-05-04 19:23 | 46.72641 | -123.16306 | 22632 ft | 382 kts | 75° |
| 2026-05-04 19:23 | 46.73169 | -123.12519 | 22175 ft | 379 kts | 75° |
| 2026-05-04 19:23 | 46.73690 | -123.08769 | 21727 ft | 376 kts | 75° |
| 2026-05-04 19:23 | 46.74207 | -123.05043 | 21278 ft | 374 kts | 75° |
| 2026-05-04 19:24 | 46.74719 | -123.01338 | 20818 ft | 372 kts | 76° |
| 2026-05-04 19:24 | 46.75230 | -122.97638 | 20363 ft | 370 kts | 76° |
| 2026-05-04 19:24 | 46.75736 | -122.93966 | 19920 ft | 369 kts | 76° |
| 2026-05-04 19:24 | 46.76239 | -122.90308 | 19464 ft | 367 kts | 76° |
| 2026-05-04 19:25 | 46.76738 | -122.86663 | 19019 ft | 366 kts | 76° |
| 2026-05-04 19:25 | 46.77236 | -122.83014 | 18575 ft | 366 kts | 76° |
| 2026-05-04 19:25 | 46.77729 | -122.79397 | 18280 ft | 359 kts | 77° |
| 2026-05-04 19:25 | 46.78319 | -122.75928 | 18056 ft | 348 kts | 68° |
| 2026-05-04 19:26 | 46.79505 | -122.72905 | 17629 ft | 341 kts | 47° |
| 2026-05-04 19:26 | 46.81216 | -122.70563 | 17225 ft | 337 kts | 38° |
| 2026-05-04 19:26 | 46.83036 | -122.68426 | 16825 ft | 335 kts | 37° |
| 2026-05-04 19:26 | 46.84855 | -122.66308 | 16408 ft | 334 kts | 37° |
| 2026-05-04 19:27 | 46.86678 | -122.64239 | 16101 ft | 328 kts | 36° |
| 2026-05-04 19:27 | 46.88463 | -122.62233 | 15948 ft | 317 kts | 36° |
| 2026-05-04 19:27 | 46.90180 | -122.60293 | 15733 ft | 309 kts | 36° |
| 2026-05-04 19:27 | 46.91858 | -122.58389 | 15366 ft | 306 kts | 37° |
| 2026-05-04 19:28 | 46.93589 | -122.56580 | 14983 ft | 303 kts | 28° |
| 2026-05-04 19:28 | 46.95520 | -122.55410 | 14657 ft | 300 kts | 17° |
| 2026-05-04 19:28 | 46.97516 | -122.54527 | 14347 ft | 301 kts | 16° |
| 2026-05-04 19:28 | 46.99530 | -122.53668 | 14020 ft | 300 kts | 16° |
| 2026-05-04 19:29 | 47.01530 | -122.52808 | 13693 ft | 299 kts | 16° |
| 2026-05-04 19:29 | 47.03516 | -122.51948 | 13356 ft | 297 kts | 16° |
| 2026-05-04 19:29 | 47.05492 | -122.51089 | 13038 ft | 296 kts | 16° |
| 2026-05-04 19:29 | 47.07471 | -122.50255 | 12711 ft | 295 kts | 14° |
| 2026-05-04 19:30 | 47.09490 | -122.49734 | 12401 ft | 293 kts | 8° |
| 2026-05-04 19:30 | 47.11509 | -122.49362 | 12114 ft | 292 kts | 7° |
| 2026-05-04 19:30 | 47.13495 | -122.49009 | 11801 ft | 291 kts | 7° |
| 2026-05-04 19:30 | 47.15491 | -122.48650 | 11496 ft | 289 kts | 7° |
| 2026-05-04 19:31 | 47.17482 | -122.48291 | 11184 ft | 288 kts | 7° |
| 2026-05-04 19:31 | 47.19468 | -122.47930 | 10881 ft | 287 kts | 7° |
| 2026-05-04 19:31 | 47.21436 | -122.47618 | 10675 ft | 279 kts | 6° |
| 2026-05-04 19:31 | 47.23337 | -122.47338 | 10488 ft | 271 kts | 6° |
| 2026-05-04 19:32 | 47.25167 | -122.47065 | 10234 ft | 259 kts | 6° |
| 2026-05-04 19:32 | 47.26953 | -122.46795 | 9917 ft | 257 kts | 6° |
| 2026-05-04 19:32 | 47.28738 | -122.46527 | 9672 ft | 259 kts | 6° |
| 2026-05-04 19:32 | 47.30532 | -122.46253 | 9405 ft | 259 kts | 6° |
| 2026-05-04 19:33 | 47.32311 | -122.45981 | 9107 ft | 253 kts | 6° |
| 2026-05-04 19:33 | 47.34068 | -122.45712 | 8859 ft | 256 kts | 6° |
| 2026-05-04 19:33 | 47.35824 | -122.45533 | 8446 ft | 251 kts | 1° |
| 2026-05-04 19:33 | 47.37537 | -122.45514 | 8159 ft | 240 kts | 360° |
| 2026-05-04 19:34 | 47.39163 | -122.45523 | 7916 ft | 230 kts | 0° |
| 2026-05-04 19:34 | 47.40763 | -122.45527 | 7676 ft | 230 kts | 0° |
| 2026-05-04 19:34 | 47.42359 | -122.45535 | 7429 ft | 228 kts | 360° |
| 2026-05-04 19:34 | 47.43941 | -122.45556 | 7219 ft | 225 kts | 360° |
| 2026-05-04 19:35 | 47.45506 | -122.45558 | 6972 ft | 225 kts | 0° |
| 2026-05-04 19:35 | 47.47078 | -122.45542 | 6722 ft | 227 kts | 0° |
| 2026-05-04 19:35 | 47.48650 | -122.45543 | 6569 ft | 226 kts | 360° |
| 2026-05-04 19:35 | 47.50224 | -122.45543 | 6310 ft | 226 kts | 0° |
| 2026-05-04 19:36 | 47.51791 | -122.45545 | 6033 ft | 225 kts | 359° |
| 2026-05-04 19:36 | 47.53357 | -122.45599 | 5731 ft | 224 kts | 358° |
| 2026-05-04 19:36 | 47.54903 | -122.45665 | 5500 ft | 224 kts | 358° |
| 2026-05-04 19:36 | 47.56452 | -122.45729 | 5312 ft | 223 kts | 358° |
| 2026-05-04 19:37 | 47.58002 | -122.45791 | 5182 ft | 223 kts | 357° |
| 2026-05-04 19:37 | 47.59548 | -122.45853 | 5064 ft | 222 kts | 357° |
| 2026-05-04 19:37 | 47.61057 | -122.45910 | 4940 ft | 211 kts | 357° |
| 2026-05-04 19:37 | 47.62507 | -122.45966 | 4817 ft | 208 kts | 357° |
| 2026-05-04 19:38 | 47.63951 | -122.46022 | 4696 ft | 208 kts | 356° |
| 2026-05-04 19:38 | 47.65378 | -122.46078 | 4570 ft | 208 kts | 357° |
| 2026-05-04 19:38 | 47.66822 | -122.46109 | 4458 ft | 208 kts | 0° |
| 2026-05-04 19:38 | 47.68209 | -122.45437 | 4327 ft | 211 kts | 34° |
| 2026-05-04 19:39 | 47.69091 | -122.43715 | 4229 ft | 214 kts | 68° |
| 2026-05-04 19:39 | 47.69319 | -122.41591 | 4157 ft | 202 kts | 86° |
| 2026-05-04 19:39 | 47.69330 | -122.39544 | 4058 ft | 197 kts | 89° |
| 2026-05-04 19:39 | 47.69320 | -122.37514 | 3967 ft | 197 kts | 89° |
| 2026-05-04 19:40 | 47.69301 | -122.35473 | 3955 ft | 198 kts | 89° |
| 2026-05-04 19:40 | 47.69238 | -122.33427 | 3942 ft | 200 kts | 100° |
| 2026-05-04 19:40 | 47.68470 | -122.31761 | 3965 ft | 198 kts | 149° |
| 2026-05-04 19:40 | 47.67171 | -122.31334 | 3970 ft | 193 kts | 185° |
| 2026-05-04 19:41 | 47.65824 | -122.31509 | 3970 ft | 195 kts | 187° |
| 2026-05-04 19:41 | 47.64483 | -122.31628 | 3914 ft | 196 kts | 183° |
| 2026-05-04 19:41 | 47.63152 | -122.31650 | 3738 ft | 185 kts | 182° |
| 2026-05-04 19:41 | 47.61895 | -122.31658 | 3464 ft | 178 kts | 183° |
| 2026-05-04 19:42 | 47.60678 | -122.31671 | 3197 ft | 172 kts | 183° |
| 2026-05-04 19:42 | 47.59490 | -122.31681 | 2978 ft | 170 kts | 182° |
| 2026-05-04 19:42 | 47.58309 | -122.31682 | 2757 ft | 166 kts | 182° |
| 2026-05-04 19:42 | 47.57153 | -122.31697 | 2367 ft | 171 kts | 182° |
| 2026-05-04 19:43 | 47.56011 | -122.31712 | 2226 ft | 159 kts | 182° |
| 2026-05-04 19:43 | 47.54938 | -122.31720 | 2091 ft | 149 kts | 181° |
| 2026-05-04 19:43 | 47.53918 | -122.31726 | 1898 ft | 145 kts | 182° |
| 2026-05-04 19:43 | 47.52918 | -122.31737 | 1713 ft | 143 kts | 183° |
| 2026-05-04 19:44 | 47.51924 | -122.31739 | 1554 ft | 142 kts | 185° |
| 2026-05-04 19:44 | 47.50934 | -122.31751 | 1347 ft | 142 kts | 184° |
| 2026-05-04 19:44 | 47.49948 | -122.31759 | 1167 ft | 142 kts | 184° |
| 2026-05-04 19:44 | 47.48941 | -122.31784 | 964 ft | 141 kts | 182° |
| 2026-05-04 19:45 | 47.47960 | -122.31783 | 775 ft | 142 kts | 178° |
| 2026-05-04 19:45 | 47.47003 | -122.31789 | 616 ft | 139 kts | 181° |
| 2026-05-04 19:45 | 47.46056 | -122.31790 | 422 ft | 132 kts | 180° |
| 2026-05-04 19:45 | 47.45326 | -122.31797 | 403 ft | 72 kts | 180° |
| 2026-05-04 19:46 | 47.44983 | -122.31800 | 397 ft | 42 kts | 180° |
| 2026-05-04 19:46 | 47.44699 | -122.31802 | 391 ft | 40 kts | 180° |
| 2026-05-04 19:46 | 47.44427 | -122.31802 | 381 ft | 39 kts | 174° |
| 2026-05-04 19:46 | 47.44238 | -122.31696 | 374 ft | 28 kts | 151° |
| 2026-05-04 19:47 | 47.44076 | -122.31559 | 374 ft | 20 kts | 151° |
| 2026-05-04 19:47 | 47.43962 | -122.31463 | 377 ft | 18 kts | 150° |
| 2026-05-04 19:47 | 47.43854 | -122.31372 | 375 ft | 17 kts | 149° |
| 2026-05-04 19:47 | 47.43807 | -122.31251 | 377 ft | 13 kts | 91° |
| 2026-05-04 19:48 | 47.43808 | -122.31111 | 377 ft | 15 kts | 90° |
| 2026-05-04 19:48 | 47.43807 | -122.30957 | 379 ft | 15 kts | 90° |
| 2026-05-04 19:48 | 47.43807 | -122.30806 | 382 ft | 15 kts | 90° |
| 2026-05-04 19:48 | 47.43805 | -122.30701 | 382 ft | 15 kts | 98° |
| 2026-05-04 19:49 | 47.43826 | -122.30647 | 385 ft | 6 kts | 30° |
| 2026-05-04 19:49 | 47.43924 | -122.30637 | 388 ft | 17 kts | 0° |
| 2026-05-04 19:49 | 47.43988 | -122.30593 | 390 ft | 7 kts | 66° |
| 2026-05-04 19:49 | 47.43980 | -122.30521 | 390 ft | 7 kts | 131° |
| 2026-05-04 19:50 | 47.43937 | -122.30499 | 391 ft | 7 kts | 160° |
| 2026-05-04 19:50 | 47.43910 | -122.30450 | 391 ft | 6 kts | 120° |
| 2026-05-04 19:50 | 47.43901 | -122.30427 | 391 ft | 0 kts | 120° |